Time;durP1;ratioP1;P1;durP2;ratioP2;P2;SDS_P1;SDS_P2;PMS_P1;PMS_P2;Temp;Humidity;BMP_temperature;BMP_pressure;BME280_temperature;BME280_humidity;BME280_pressure;Samples;Min_cycle;Max_cycle;Signal;HPM_P1;HPM_P2
2022/05/17 00:00:55;;;;;;;8.43;2.70;;;18.70;98.90;;;;;;4975036;28;20122;-80
2022/05/17 00:03:20;;;;;;;6.55;2.45;;;18.60;99.00;;;;;;4974704;28;20066;-80
2022/05/17 00:05:47;;;;;;;3.92;1.98;;;18.60;99.20;;;;;;4974503;28;20030;-81
2022/05/17 00:08:13;;;;;;;6.13;1.90;;;18.60;99.50;;;;;;4974573;28;20031;-80
2022/05/17 00:10:40;;;;;;;6.80;2.35;;;18.60;99.70;;;;;;4973809;28;20058;-80
2022/05/17 00:13:05;;;;;;;5.47;2.72;;;18.50;99.90;;;;;;4974607;28;20035;-80
2022/05/17 00:15:32;;;;;;;4.20;2.08;;;18.60;99.90;;;;;;4973874;28;20538;-80
2022/05/17 00:17:58;;;;;;;3.85;2.45;;;18.50;99.90;;;;;;4974486;28;20027;-80
2022/05/17 00:20:24;;;;;;;8.68;2.42;;;18.50;99.90;;;;;;4974288;28;20531;-79
2022/05/17 00:22:50;;;;;;;5.57;2.38;;;18.40;99.90;;;;;;4975462;28;20506;-80
2022/05/17 00:25:20;;;;;;;7.00;2.13;;;18.40;99.90;;;;;;4958037;28;20037;-80
2022/05/17 00:27:45;;;;;;;4.28;2.08;;;18.40;99.90;;;;;;4974630;28;20030;-79
2022/05/17 00:30:12;;;;;;;5.13;2.55;;;18.40;99.90;;;;;;4973766;28;20388;-79
2022/05/17 00:32:37;;;;;;;6.07;2.88;;;18.40;99.90;;;;;;4957353;28;20062;-79
2022/05/17 00:35:04;;;;;;;3.88;2.22;;;18.40;99.90;;;;;;4974149;28;20062;-79
2022/05/17 00:37:30;;;;;;;4.28;2.20;;;18.40;99.90;;;;;;4972799;28;20027;-79
2022/05/17 00:39:55;;;;;;;4.55;2.28;;;18.40;99.90;;;;;;4957983;28;20030;-79
2022/05/17 00:42:21;;;;;;;4.40;2.20;;;18.30;99.90;;;;;;4974019;28;20054;-81
2022/05/17 00:44:47;;;;;;;5.15;2.22;;;18.30;99.90;;;;;;4973971;28;20481;-82
2022/05/17 00:47:56;;;;;;;3.55;2.13;;;18.30;99.90;;;;;;4974275;28;20121;-83
2022/05/17 00:50:34;;;;;;;5.18;2.70;;;18.20;99.90;;;;;;4915535;29;20043;-81
2022/05/17 00:53:20;;;;;;;4.18;2.15;;;18.20;99.90;;;;;;4899789;29;20028;-79
2022/05/17 00:55:52;;;;;;;3.67;2.20;;;18.10;99.90;;;;;;4914737;29;20164;-79
2022/05/17 00:58:23;;;;;;;3.45;2.20;;;18.10;99.90;;;;;;4914959;29;20024;-79
2022/05/17 01:01:02;;;;;;;7.97;2.83;;;18.10;99.90;;;;;;4915096;29;20509;-79
2022/05/17 01:03:36;;;;;;;7.35;2.45;;;18.00;99.90;;;;;;4914738;29;20127;-79
2022/05/17 01:06:02;;;;;;;7.10;2.17;;;18.00;99.90;;;;;;4899665;29;20028;-80
2022/05/17 01:08:28;;;;;;;4.47;2.13;;;17.90;99.90;;;;;;4898199;29;20047;-79
2022/05/17 01:10:54;;;;;;;4.68;2.20;;;17.90;99.90;;;;;;4914881;29;20128;-79
2022/05/17 01:16:07;;;;;;;7.45;2.90;;;17.90;99.90;;;;;;4915290;29;20505;-79
2022/05/17 01:18:34;;;;;;;5.03;2.25;;;17.90;99.90;;;;;;4898780;29;20028;-79
2022/05/17 01:21:02;;;;;;;4.85;2.15;;;17.90;99.90;;;;;;4944403;28;20104;-79
2022/05/17 01:23:28;;;;;;;7.85;2.53;;;17.90;99.90;;;;;;4956425;28;20047;-79
2022/05/17 01:25:54;;;;;;;5.00;2.97;;;17.90;99.90;;;;;;4973162;28;20049;-79
2022/05/17 01:28:24;;;;;;;6.70;2.45;;;17.80;99.90;;;;;;4957499;28;20456;-81
2022/05/17 01:30:49;;;;;;;6.43;2.35;;;17.70;99.90;;;;;;4973000;28;20027;-81
2022/05/17 01:33:17;;;;;;;6.30;2.22;;;17.50;99.90;;;;;;4974439;28;20039;-81
2022/05/17 01:35:44;;;;;;;5.35;2.72;;;17.40;99.90;;;;;;4956654;28;20495;-81
2022/05/17 01:38:10;;;;;;;4.43;2.15;;;17.30;99.90;;;;;;4973380;28;20093;-81
2022/05/17 01:40:36;;;;;;;4.75;2.28;;;17.20;99.90;;;;;;4972708;28;20472;-80
2022/05/17 01:43:03;;;;;;;4.82;2.50;;;17.20;99.90;;;;;;4973725;28;20037;-81
2022/05/17 01:45:28;;;;;;;3.95;2.40;;;17.20;99.90;;;;;;4972798;28;20499;-79
2022/05/17 01:47:54;;;;;;;4.20;2.42;;;17.30;99.90;;;;;;4973130;28;20027;-79
2022/05/17 01:50:21;;;;;;;6.43;2.08;;;17.30;99.90;;;;;;4977062;28;20027;-80
2022/05/17 01:52:47;;;;;;;6.47;2.35;;;17.20;99.90;;;;;;4976306;28;20568;-80
2022/05/17 01:55:13;;;;;;;4.50;2.50;;;17.20;99.90;;;;;;4977972;28;20096;-80
2022/05/17 01:57:39;;;;;;;4.35;2.30;;;17.30;99.90;;;;;;4977436;28;20117;-80
2022/05/17 02:00:07;;;;;;;8.18;2.35;;;17.30;99.90;;;;;;4977842;28;20038;-81
2022/05/17 02:02:33;;;;;;;3.95;2.20;;;17.20;99.90;;;;;;4977527;28;20031;-80
2022/05/17 02:04:59;;;;;;;3.83;2.30;;;17.20;99.90;;;;;;4960768;28;20037;-82
2022/05/17 02:07:25;;;;;;;7.43;2.50;;;17.20;99.90;;;;;;4977124;28;20041;-82
2022/05/17 02:09:50;;;;;;;4.40;2.60;;;17.10;99.90;;;;;;4976507;28;20035;-82
2022/05/17 02:12:17;;;;;;;5.40;2.40;;;17.10;99.90;;;;;;4976914;28;20035;-83
2022/05/17 02:14:43;;;;;;;4.78;2.45;;;17.00;99.90;;;;;;4977375;28;20039;-82
2022/05/17 02:17:09;;;;;;;7.68;2.67;;;17.00;99.90;;;;;;4978010;28;20058;-82
2022/05/17 02:19:35;;;;;;;7.85;2.67;;;16.90;99.90;;;;;;4976386;28;20126;-82
2022/05/17 02:22:00;;;;;;;5.72;2.72;;;16.90;99.90;;;;;;4976852;28;20027;-82
2022/05/17 02:24:27;;;;;;;6.28;2.53;;;16.90;99.90;;;;;;4976312;28;20049;-82
2022/05/17 02:26:54;;;;;;;4.68;2.30;;;16.80;99.90;;;;;;4960307;28;20086;-82
2022/05/17 02:29:20;;;;;;;4.80;2.20;;;16.70;99.90;;;;;;4976747;28;20027;-82
2022/05/17 02:31:46;;;;;;;4.20;2.30;;;16.70;99.90;;;;;;4975865;28;20030;-82
2022/05/17 02:34:11;;;;;;;3.33;2.30;;;16.60;99.90;;;;;;4976679;28;20399;-82
2022/05/17 02:36:37;;;;;;;3.67;2.03;;;16.60;99.90;;;;;;4975909;28;20033;-82
2022/05/17 02:39:02;;;;;;;5.55;2.38;;;16.70;99.90;;;;;;4977397;28;20034;-80
2022/05/17 02:41:28;;;;;;;3.67;2.38;;;16.70;99.90;;;;;;4976232;28;20448;-80
2022/05/17 02:43:54;;;;;;;6.15;2.40;;;16.70;99.90;;;;;;4976164;28;20120;-81
2022/05/17 02:46:20;;;;;;;6.10;2.22;;;16.60;99.90;;;;;;4977546;28;20038;-81
2022/05/17 02:48:45;;;;;;;4.53;2.05;;;16.60;99.90;;;;;;4975479;28;20104;-81
2022/05/17 02:51:14;;;;;;;6.10;2.40;;;16.50;99.90;;;;;;4975929;28;20057;-81
2022/05/17 02:53:40;;;;;;;4.35;2.20;;;16.40;99.90;;;;;;4975357;28;20464;-81
2022/05/17 02:56:07;;;;;;;4.90;2.42;;;16.40;99.90;;;;;;4976008;28;20038;-81
2022/05/17 02:58:33;;;;;;;3.38;2.20;;;16.40;99.90;;;;;;4976106;28;20023;-80
2022/05/17 03:00:59;;;;;;;3.90;2.28;;;16.30;99.90;;;;;;4976101;28;20027;-81
2022/05/17 03:03:24;;;;;;;4.22;2.40;;;16.30;99.90;;;;;;4975678;28;20081;-81
2022/05/17 03:05:50;;;;;;;5.53;2.28;;;16.30;99.90;;;;;;4976132;28;20031;-80
2022/05/17 03:08:16;;;;;;;5.97;2.38;;;16.30;99.90;;;;;;4975841;28;20038;-80
2022/05/17 03:10:41;;;;;;;4.60;2.60;;;16.30;99.90;;;;;;4975079;28;20030;-80
2022/05/17 03:13:10;;;;;;;4.07;2.45;;;16.20;99.90;;;;;;4969285;28;20094;-80
2022/05/17 03:15:37;;;;;;;5.40;2.33;;;16.20;99.90;;;;;;4955584;29;20047;-79
2022/05/17 03:18:03;;;;;;;5.75;2.40;;;16.20;99.90;;;;;;4956345;29;20461;-79
2022/05/17 03:20:28;;;;;;;6.25;2.22;;;16.10;99.90;;;;;;4957187;29;20027;-83
2022/05/17 03:22:54;;;;;;;6.28;2.38;;;16.10;99.90;;;;;;4956154;29;20051;-82
2022/05/17 03:25:20;;;;;;;6.10;2.50;;;16.00;99.90;;;;;;4969500;28;20476;-82
2022/05/17 03:27:45;;;;;;;3.40;2.35;;;15.90;99.90;;;;;;4975822;28;20019;-82
2022/05/17 03:30:11;;;;;;;6.47;2.45;;;15.90;99.90;;;;;;4974930;28;20034;-83
2022/05/17 03:32:37;;;;;;;8.70;2.58;;;15.80;99.90;;;;;;4956383;28;20070;-80
2022/05/17 03:35:03;;;;;;;4.90;2.70;;;15.80;99.90;;;;;;4957144;28;20173;-80
2022/05/17 03:37:29;;;;;;;6.07;2.38;;;15.80;99.90;;;;;;4957483;28;20167;-81
2022/05/17 03:39:55;;;;;;;4.65;2.90;;;15.70;99.90;;;;;;4961525;28;20137;-82
2022/05/17 03:42:20;;;;;;;3.65;2.58;;;15.60;99.90;;;;;;4975078;28;20472;-81
2022/05/17 03:44:46;;;;;;;5.03;2.40;;;15.60;99.90;;;;;;4974514;28;20061;-81
2022/05/17 03:47:11;;;;;;;4.50;2.33;;;15.60;99.90;;;;;;4975086;28;20034;-81
2022/05/17 03:49:38;;;;;;;5.68;2.25;;;15.60;99.90;;;;;;4974452;28;20058;-81
2022/05/17 03:52:05;;;;;;;5.20;2.63;;;15.60;99.90;;;;;;4974756;28;20495;-81
2022/05/17 03:54:31;;;;;;;5.35;2.60;;;15.50;99.90;;;;;;4974386;28;20039;-79
2022/05/17 03:56:57;;;;;;;4.93;2.40;;;15.50;99.90;;;;;;4961205;28;20468;-79
2022/05/17 03:59:23;;;;;;;4.47;2.90;;;15.50;99.90;;;;;;4965234;28;20042;-81
2022/05/17 04:01:48;;;;;;;4.30;2.70;;;15.50;99.90;;;;;;4968424;28;20134;-81
2022/05/17 04:04:15;;;;;;;4.57;2.60;;;15.40;99.90;;;;;;4975684;28;20081;-80
2022/05/17 04:06:41;;;;;;;4.28;2.38;;;15.40;99.90;;;;;;4974044;28;20075;-80
2022/05/17 04:09:07;;;;;;;4.00;2.20;;;15.50;99.90;;;;;;4974993;28;20464;-82
2022/05/17 04:11:34;;;;;;;4.45;2.35;;;15.50;99.90;;;;;;4973824;28;20037;-81
2022/05/17 04:14:00;;;;;;;5.95;2.53;;;15.40;99.90;;;;;;4975318;28;20035;-81
2022/05/17 04:16:29;;;;;;;4.82;2.40;;;15.50;99.90;;;;;;4974762;28;20039;-80
2022/05/17 04:18:54;;;;;;;3.80;2.40;;;15.50;99.90;;;;;;4975136;28;20460;-80
2022/05/17 04:21:20;;;;;;;7.00;2.55;;;15.40;99.90;;;;;;4974636;28;20027;-81
2022/05/17 04:23:45;;;;;;;4.80;2.78;;;15.40;99.90;;;;;;4973204;28;20487;-81
2022/05/17 04:26:13;;;;;;;9.35;2.85;;;15.40;99.90;;;;;;4968272;28;20125;-80
2022/05/17 04:28:38;;;;;;;4.07;2.70;;;15.40;99.90;;;;;;4981787;28;20018;-80
2022/05/17 04:31:05;;;;;;;3.88;2.30;;;15.50;99.90;;;;;;4974976;28;20022;-81
2022/05/17 04:33:30;;;;;;;5.68;2.75;;;15.60;99.90;;;;;;4985669;28;20495;-81
2022/05/17 04:35:56;;;;;;;4.95;2.58;;;15.60;99.90;;;;;;4973676;28;20037;-81
2022/05/17 04:38:22;;;;;;;6.82;2.55;;;15.60;99.90;;;;;;4974117;28;20030;-82
2022/05/17 04:40:48;;;;;;;5.47;2.13;;;15.60;99.90;;;;;;4957391;28;20023;-81
2022/05/17 04:43:14;;;;;;;4.53;2.22;;;15.70;99.90;;;;;;4973998;28;20034;-81
2022/05/17 04:45:41;;;;;;;5.10;2.58;;;15.70;99.90;;;;;;4973557;28;20456;-81
2022/05/17 04:48:07;;;;;;;6.53;2.58;;;15.80;99.90;;;;;;4975077;28;20114;-81
2022/05/17 04:50:34;;;;;;;4.95;2.50;;;15.80;99.90;;;;;;4973930;28;20055;-80
2022/05/17 04:53:00;;;;;;;6.88;2.95;;;15.80;99.90;;;;;;4973642;28;20030;-81
2022/05/17 04:55:26;;;;;;;3.88;2.55;;;15.80;99.90;;;;;;4977755;28;20085;-81
2022/05/17 04:57:51;;;;;;;3.90;2.45;;;15.90;99.90;;;;;;4980605;28;20030;-82
2022/05/17 05:00:21;;;;;;;4.60;2.50;;;15.90;99.90;;;;;;4973638;28;20033;-82
2022/05/17 05:02:47;;;;;;;3.55;2.42;;;15.90;99.90;;;;;;4973185;28;20023;-78
2022/05/17 05:05:14;;;;;;;4.00;2.40;;;15.90;99.90;;;;;;4973489;28;20031;-79
2022/05/17 05:07:40;;;;;;;6.15;2.47;;;15.90;99.90;;;;;;4974072;28;20027;-78
2022/05/17 05:10:07;;;;;;;5.32;2.72;;;15.90;99.90;;;;;;4973332;28;20023;-78
2022/05/17 05:12:34;;;;;;;4.25;2.28;;;15.90;99.90;;;;;;4974469;28;20035;-78
2022/05/17 05:15:00;;;;;;;6.35;2.95;;;16.00;99.90;;;;;;4972751;28;20031;-79
2022/05/17 05:17:30;;;;;;;4.78;2.55;;;16.10;99.90;;;;;;4973103;28;20547;-79
2022/05/17 05:19:55;;;;;;;5.82;2.55;;;16.20;99.90;;;;;;4972970;28;20031;-80
2022/05/17 05:22:21;;;;;;;7.57;2.70;;;16.20;99.90;;;;;;4975137;28;20034;-79
2022/05/17 05:24:47;;;;;;;7.32;3.17;;;16.20;99.90;;;;;;4977676;28;20117;-78
2022/05/17 05:27:13;;;;;;;5.32;2.53;;;16.20;99.90;;;;;;4977195;28;20030;-78
2022/05/17 05:29:39;;;;;;;6.60;2.60;;;16.30;99.90;;;;;;4977690;28;20030;-77
2022/05/17 05:32:05;;;;;;;6.82;2.65;;;16.40;99.90;;;;;;4960806;28;20046;-79
2022/05/17 05:34:30;;;;;;;6.60;2.90;;;16.40;99.90;;;;;;4961273;28;20034;-79
2022/05/17 05:36:56;;;;;;;9.02;2.97;;;16.50;99.90;;;;;;4976463;28;20370;-79
2022/05/17 05:39:21;;;;;;;4.45;2.85;;;16.60;99.90;;;;;;4976723;28;20053;-79
2022/05/17 05:41:48;;;;;;;5.57;2.70;;;16.60;99.90;;;;;;4977451;28;20087;-79
2022/05/17 05:44:13;;;;;;;5.32;2.83;;;16.70;99.90;;;;;;4977884;28;20089;-79
2022/05/17 05:46:39;;;;;;;4.80;2.35;;;16.70;99.90;;;;;;4977596;28;20022;-79
2022/05/17 05:49:05;;;;;;;5.57;2.75;;;16.70;99.90;;;;;;4976826;28;20038;-80
2022/05/17 05:51:30;;;;;;;5.50;3.00;;;16.80;99.90;;;;;;4961347;28;20027;-81
2022/05/17 05:53:56;;;;;;;6.72;3.22;;;16.90;99.90;;;;;;4976410;28;20030;-81
2022/05/17 05:56:22;;;;;;;6.05;2.88;;;16.90;99.90;;;;;;4977802;28;20038;-81
2022/05/17 05:58:48;;;;;;;7.97;2.55;;;16.90;99.90;;;;;;4975754;28;20023;-81
2022/05/17 06:01:14;;;;;;;6.63;2.97;;;16.90;99.90;;;;;;4976927;28;20491;-81
2022/05/17 06:03:40;;;;;;;5.30;2.90;;;17.00;99.90;;;;;;4960701;28;20027;-78
2022/05/17 06:06:10;;;;;;;5.60;2.90;;;17.10;99.90;;;;;;4976662;28;20053;-80
2022/05/17 06:08:37;;;;;;;6.47;3.28;;;17.10;99.90;;;;;;4976741;28;20037;-80
2022/05/17 06:11:02;;;;;;;8.68;5.55;;;17.10;99.90;;;;;;4975758;28;20114;-80
2022/05/17 06:13:28;;;;;;;5.80;3.35;;;17.20;99.90;;;;;;4977678;28;20086;-78
2022/05/17 06:15:54;;;;;;;9.88;4.03;;;17.30;99.90;;;;;;4976121;28;20615;-81
2022/05/17 06:18:20;;;;;;;5.25;2.78;;;17.40;99.90;;;;;;4977765;28;20464;-81
2022/05/17 06:20:54;;;;;;;7.90;2.83;;;17.40;99.90;;;;;;4977108;28;20491;-80
2022/05/17 06:23:21;;;;;;;6.43;2.65;;;17.50;99.90;;;;;;4976231;28;20051;-81
2022/05/17 06:25:47;;;;;;;8.23;3.42;;;17.50;99.90;;;;;;4959617;28;20058;-81
2022/05/17 06:28:13;;;;;;;6.82;3.00;;;17.60;99.90;;;;;;4977443;28;20030;-80
2022/05/17 06:30:41;;;;;;;9.15;3.17;;;17.60;99.90;;;;;;4976098;28;20026;-79
2022/05/17 06:33:09;;;;;;;7.53;3.10;;;17.80;99.90;;;;;;4975887;28;20424;-81
2022/05/17 06:35:36;;;;;;;5.80;3.20;;;17.90;99.90;;;;;;4975315;28;20042;-80
2022/05/17 06:38:02;;;;;;;5.57;3.00;;;18.00;99.90;;;;;;4975500;28;20023;-81
2022/05/17 06:40:27;;;;;;;4.47;3.00;;;18.10;99.90;;;;;;4975928;28;20062;-81
2022/05/17 06:42:53;;;;;;;7.63;2.90;;;18.10;99.90;;;;;;4959284;28;20063;-82
2022/05/17 06:45:19;;;;;;;5.50;2.75;;;18.10;99.90;;;;;;4977088;28;20106;-82
2022/05/17 06:47:44;;;;;;;5.32;2.67;;;18.20;99.90;;;;;;4976236;28;20035;-81
2022/05/17 06:50:10;;;;;;;6.53;2.63;;;18.20;99.90;;;;;;4975648;28;20480;-81
2022/05/17 06:52:36;;;;;;;8.73;2.65;;;18.30;99.90;;;;;;4970292;28;20045;-79
2022/05/17 06:55:04;;;;;;;7.28;2.90;;;18.30;99.90;;;;;;4975247;28;20018;-80
2022/05/17 06:57:29;;;;;;;8.52;2.80;;;18.40;99.90;;;;;;4972478;28;20028;-79
2022/05/17 06:59:55;;;;;;;5.38;2.53;;;18.40;99.90;;;;;;4973501;28;20029;-79
2022/05/17 07:02:21;;;;;;;6.70;3.38;;;18.50;99.90;;;;;;4975711;28;20027;-78
2022/05/17 07:04:48;;;;;;;3.97;2.70;;;18.50;99.90;;;;;;4974345;28;20115;-81
2022/05/17 07:07:13;;;;;;;4.53;2.65;;;18.60;99.90;;;;;;4976315;28;20023;-81
2022/05/17 07:09:39;;;;;;;5.35;2.78;;;18.70;99.90;;;;;;4975027;28;20552;-80
2022/05/17 07:14:50;;;;;;;6.00;2.80;;;18.80;99.90;;;;;;4975117;28;20041;-80
2022/05/17 07:17:18;;;;;;;7.45;2.50;;;18.90;99.90;;;;;;4975231;28;20086;-81
2022/05/17 07:19:45;;;;;;;4.75;2.70;;;18.90;99.90;;;;;;4974406;28;20448;-80
2022/05/17 07:22:11;;;;;;;4.75;2.70;;;19.00;99.90;;;;;;4974558;28;20030;-80
2022/05/17 07:24:37;;;;;;;8.30;2.58;;;19.00;99.90;;;;;;4970697;28;20126;-80
2022/05/17 07:27:05;;;;;;;7.53;2.55;;;19.10;99.90;;;;;;4975110;28;20113;-82
2022/05/17 07:29:32;;;;;;;4.65;2.90;;;19.10;99.90;;;;;;4972052;28;20029;-80
2022/05/17 07:31:58;;;;;;;6.25;2.95;;;19.20;99.90;;;;;;4964518;28;20026;-79
2022/05/17 07:34:23;;;;;;;4.07;2.47;;;19.30;99.90;;;;;;4963810;28;20031;-81
2022/05/17 07:36:49;;;;;;;4.50;2.67;;;19.40;99.90;;;;;;4971237;28;20376;-81
2022/05/17 07:39:15;;;;;;;5.57;2.75;;;19.40;99.90;;;;;;4969462;28;20105;-80
2022/05/17 07:41:41;;;;;;;9.70;3.25;;;19.50;99.90;;;;;;4973871;28;20354;-80
2022/05/17 07:44:08;;;;;;;9.85;3.00;;;19.50;99.90;;;;;;4973752;28;20026;-80
2022/05/17 07:46:34;;;;;;;7.13;2.60;;;19.50;99.90;;;;;;4974915;28;20077;-79
2022/05/17 07:49:00;;;;;;;7.63;2.70;;;19.80;99.90;;;;;;4974464;28;20035;-81
2022/05/17 07:51:26;;;;;;;6.63;2.88;;;19.90;99.90;;;;;;4974641;28;20468;-81
2022/05/17 07:53:51;;;;;;;5.90;2.50;;;20.00;99.90;;;;;;4969624;28;20053;-82
2022/05/17 07:56:17;;;;;;;8.73;3.20;;;20.10;99.90;;;;;;4974570;28;20495;-82
2022/05/17 07:58:43;;;;;;;5.63;2.92;;;20.30;99.90;;;;;;4974711;28;20031;-78
2022/05/17 08:01:09;;;;;;;5.72;2.97;;;20.30;99.90;;;;;;4974911;28;20054;-79
2022/05/17 08:03:35;;;;;;;8.48;2.92;;;20.40;99.90;;;;;;4974195;28;20046;-80
2022/05/17 08:06:01;;;;;;;4.97;2.90;;;20.50;99.90;;;;;;4973245;28;20025;-81
2022/05/17 08:08:26;;;;;;;6.50;2.80;;;20.60;99.90;;;;;;4974008;28;20427;-80
2022/05/17 08:10:53;;;;;;;5.28;2.70;;;20.70;99.90;;;;;;4970913;28;20464;-79
2022/05/17 08:13:20;;;;;;;3.95;2.38;;;20.80;99.90;;;;;;4973651;28;20054;-79
2022/05/17 08:15:46;;;;;;;6.00;2.72;;;21.00;99.90;;;;;;4968346;28;20127;-79
2022/05/17 08:18:12;;;;;;;3.92;2.85;;;21.00;99.90;;;;;;4961868;28;20095;-81
2022/05/17 08:20:38;;;;;;;4.18;2.58;;;21.10;99.90;;;;;;4968392;28;20077;-81
2022/05/17 08:23:05;;;;;;;5.03;2.97;;;21.10;99.70;;;;;;4970455;28;20042;-81
2022/05/17 08:28:15;;;;;;;3.63;2.40;;;21.10;99.20;;;;;;4974669;28;20116;-80
2022/05/17 08:30:42;;;;;;;2.97;2.13;;;21.20;98.70;;;;;;4972073;28;20484;-81
2022/05/17 08:33:17;;;;;;;4.72;2.10;;;21.20;98.30;;;;;;4964064;28;20038;-79
2022/05/17 08:35:50;;;;;;;2.78;2.03;;;21.30;97.50;;;;;;4971465;28;20114;-80
2022/05/17 08:38:25;;;;;;;6.47;2.38;;;21.20;97.60;;;;;;4966649;28;20031;-80
2022/05/17 08:41:10;;;;;;;7.82;2.47;;;21.30;97.90;;;;;;4956579;28;20443;-86
2022/05/17 08:44:07;;;;;;;7.50;2.47;;;21.30;97.70;;;;;;4957325;28;20129;-84
2022/05/17 08:46:58;;;;;;;3.35;2.40;;;21.30;97.50;;;;;;4950260;28;20060;-82
2022/05/17 08:49:35;;;;;;;7.53;2.58;;;21.30;96.60;;;;;;4971333;28;20031;-83
2022/05/17 08:52:15;;;;;;;4.20;2.50;;;21.40;96.90;;;;;;4969640;28;20376;-85
2022/05/17 08:55:02;;;;;;;5.30;2.15;;;21.50;96.90;;;;;;4971760;28;20073;-86
2022/05/17 08:57:38;;;;;;;8.50;2.33;;;21.50;96.80;;;;;;4968863;28;20073;-86
2022/05/17 09:00:24;;;;;;;4.68;2.35;;;21.50;96.30;;;;;;4969797;28;20186;-84
2022/05/17 09:02:58;;;;;;;4.95;2.08;;;21.50;95.70;;;;;;4951165;28;20054;-89
2022/05/17 09:05:33;;;;;;;4.72;2.50;;;21.40;95.30;;;;;;4973690;28;20085;-88
2022/05/17 09:08:11;;;;;;;5.43;2.75;;;21.40;95.40;;;;;;4970784;28;20031;-90
2022/05/17 09:10:39;;;;;;;4.95;2.30;;;21.50;95.20;;;;;;4973565;28;20038;-91
2022/05/17 09:13:10;;;;;;;5.00;2.60;;;21.40;95.10;;;;;;4972564;28;20214;-92
2022/05/17 09:15:36;;;;;;;4.65;2.20;;;21.40;95.20;;;;;;4963156;28;20058;-89
2022/05/17 09:18:09;;;;;;;6.38;2.60;;;21.40;96.30;;;;;;4961611;28;20166;-80
2022/05/17 09:20:37;;;;;;;6.63;3.10;;;21.50;96.10;;;;;;4971217;28;20053;-81
2022/05/17 09:23:03;;;;;;;7.57;2.70;;;21.60;96.20;;;;;;4971681;28;20058;-81
2022/05/17 09:25:53;;;;;;;6.50;2.67;;;21.60;96.30;;;;;;4971803;28;20026;-81
2022/05/17 09:28:22;;;;;;;8.23;2.42;;;21.60;96.00;;;;;;4954452;28;20118;-80
2022/05/17 09:30:48;;;;;;;5.97;2.00;;;21.70;95.30;;;;;;4969766;28;20096;-80
2022/05/17 09:33:19;;;;;;;3.67;2.10;;;21.70;95.10;;;;;;4970515;28;20038;-79
2022/05/17 09:35:57;;;;;;;5.13;2.20;;;21.80;95.10;;;;;;4967429;28;20609;-80
2022/05/17 09:38:23;;;;;;;6.10;2.45;;;21.80;94.70;;;;;;4965452;28;20045;-79
2022/05/17 09:40:51;;;;;;;5.50;2.47;;;21.80;94.50;;;;;;4966173;28;20023;-88
2022/05/17 09:43:23;;;;;;;4.70;1.98;;;21.80;94.20;;;;;;4968961;28;20565;-86
2022/05/17 09:45:55;;;;;;;2.78;2.08;;;21.90;94.50;;;;;;4971369;28;20084;-85
2022/05/17 09:48:32;;;;;;;3.83;2.10;;;21.90;94.90;;;;;;4955175;28;20027;-84
2022/05/17 09:54:03;;;;;;;4.55;2.17;;;22.00;94.40;;;;;;4874207;29;20041;-90
2022/05/17 09:56:28;;;;;;;3.63;2.22;;;22.00;94.30;;;;;;4872887;29;20033;-87
2022/05/17 09:58:54;;;;;;;5.18;2.42;;;22.10;95.00;;;;;;4907574;29;20504;-84
2022/05/17 10:01:30;;;;;;;5.93;2.10;;;22.30;94.30;;;;;;4969177;28;20062;-87
2022/05/17 10:04:02;;;;;;;7.72;2.40;;;22.20;92.80;;;;;;4960755;28;20066;-79
2022/05/17 10:06:35;;;;;;;4.68;2.15;;;22.20;93.00;;;;;;4962604;28;20038;-80
2022/05/17 10:09:02;;;;;;;4.20;2.33;;;22.20;92.60;;;;;;4970484;28;20031;-80
2022/05/17 10:11:51;;;;;;;4.22;2.22;;;22.20;93.00;;;;;;4954684;29;20277;-79
2022/05/17 10:14:37;;;;;;;5.50;2.28;;;22.30;93.00;;;;;;4935522;28;20471;-81
2022/05/17 10:17:12;;;;;;;5.03;2.00;;;22.20;92.80;;;;;;4956861;28;20027;-79
2022/05/17 10:19:53;;;;;;;6.15;2.20;;;22.30;92.40;;;;;;4973935;28;20030;-80
2022/05/17 10:22:54;;;;;;;4.67;1.90;;;22.30;92.50;;;;;;4970672;28;20031;-78
2022/05/17 10:25:25;;;;;;;3.80;1.80;;;22.30;92.40;;;;;;4896332;29;20315;-82
2022/05/17 10:28:09;;;;;;;5.22;2.00;;;22.30;91.20;;;;;;4946271;28;20088;-81
2022/05/17 10:30:55;;;;;;;4.00;2.20;;;22.40;91.50;;;;;;4969109;28;20053;-80
2022/05/17 10:33:45;;;;;;;5.45;2.10;;;22.50;92.10;;;;;;4970648;28;20019;-81
2022/05/17 10:36:20;;;;;;;5.72;2.00;;;22.50;91.70;;;;;;4960388;28;20059;-82
2022/05/17 10:39:02;;;;;;;4.30;1.80;;;22.50;91.60;;;;;;4968225;28;20057;-80
2022/05/17 10:41:28;;;;;;;3.75;2.10;;;22.50;90.50;;;;;;4971744;28;20031;-82
2022/05/17 10:43:53;;;;;;;5.28;2.00;;;22.50;90.20;;;;;;4972027;28;20019;-85
2022/05/17 10:46:29;;;;;;;5.97;2.40;;;22.50;90.00;;;;;;4972001;28;20512;-84
2022/05/17 10:49:19;;;;;;;2.80;1.90;;;22.60;90.10;;;;;;4972413;28;20117;-83
2022/05/17 10:52:24;;;;;;;3.40;1.73;;;22.70;89.70;;;;;;4971563;28;20051;-82
2022/05/17 10:55:28;;;;;;;4.75;1.70;;;22.70;88.90;;;;;;4963119;28;20034;-79
2022/05/17 10:58:03;;;;;;;2.25;1.90;;;22.80;89.90;;;;;;4973572;28;20551;-80
2022/05/17 11:00:42;;;;;;;4.13;2.00;;;23.00;91.40;;;;;;4956727;28;20491;-85
2022/05/17 11:03:10;;;;;;;3.78;1.90;;;23.00;89.80;;;;;;4973825;28;20026;-90
2022/05/17 11:05:54;;;;;;;3.92;2.20;;;23.00;89.50;;;;;;4975456;28;20483;-91
2022/05/17 11:08:32;;;;;;;3.50;1.90;;;23.00;90.40;;;;;;4954853;29;20413;-89
2022/05/17 11:11:45;;;;;;;5.47;2.13;;;23.00;90.80;;;;;;4954363;29;20039;-89
2022/05/17 11:14:21;;;;;;;5.75;1.95;;;23.10;90.30;;;;;;4971237;28;20039;-88
2022/05/17 11:17:12;;;;;;;3.78;2.20;;;23.10;89.60;;;;;;4971333;28;20054;-84
2022/05/17 11:20:04;;;;;;;3.50;2.03;;;23.20;90.20;;;;;;4954792;28;20035;-89
2022/05/17 11:23:07;;;;;;;7.47;2.00;;;23.20;89.40;;;;;;4974089;28;20027;-92
2022/05/17 11:26:04;;;;;;;4.78;2.10;;;23.30;90.20;;;;;;4973928;28;20042;-92
2022/05/17 11:28:39;;;;;;;3.80;1.80;;;23.30;87.60;;;;;;4954623;29;20031;-92
2022/05/17 11:31:07;;;;;;;4.45;2.10;;;23.30;88.50;;;;;;4956118;28;20074;-88
2022/05/17 11:33:39;;;;;;;5.10;1.98;;;23.40;88.90;;;;;;4957179;28;20464;-90
2022/05/17 11:36:06;;;;;;;;;;;23.50;88.00;;;;;;4972166;28;20027;-87
2022/05/17 11:38:32;;;;;;;5.53;1.73;;;23.50;83.60;;;;;;4966546;28;19925;-89
2022/05/17 11:41:00;;;;;;;5.45;2.00;;;23.60;84.40;;;;;;4955738;28;20461;-86
2022/05/17 11:43:44;;;;;;;4.20;1.42;;;23.70;83.60;;;;;;4972329;28;20030;-85
2022/05/17 11:46:38;;;;;;;3.45;1.50;;;23.70;82.20;;;;;;4971879;28;20495;-81
2022/05/17 11:49:07;;;;;;;3.35;1.67;;;23.70;79.50;;;;;;4971589;28;20045;-81
2022/05/17 11:51:38;;;;;;;3.08;1.70;;;23.70;79.40;;;;;;4972102;28;20030;-80
2022/05/17 11:54:08;;;;;;;2.50;1.40;;;23.70;80.10;;;;;;4971349;28;20031;-82
2022/05/17 11:56:38;;;;;;;3.58;1.60;;;23.70;81.00;;;;;;4971510;28;20117;-80
2022/05/17 11:59:12;;;;;;;3.67;1.35;;;23.70;78.50;;;;;;4971565;28;20026;-80
2022/05/17 12:01:38;;;;;;;1.65;1.30;;;23.70;76.50;;;;;;4971568;28;20023;-79
2022/05/17 12:04:23;;;;;;;2.00;1.25;;;23.80;77.80;;;;;;4970256;28;20022;-80
2022/05/17 12:06:48;;;;;;;1.90;1.23;;;24.00;79.10;;;;;;4972658;28;20101;-79
2022/05/17 12:09:23;;;;;;;2.63;1.27;;;24.20;77.20;;;;;;4972146;28;20126;-79
2022/05/17 12:12:10;;;;;;;3.08;1.17;;;24.40;79.00;;;;;;4954992;28;20073;-79
2022/05/17 12:15:13;;;;;;;1.83;1.25;;;24.50;77.40;;;;;;4969674;28;20066;-79
2022/05/17 12:17:44;;;;;;;3.55;1.50;;;24.60;76.30;;;;;;4965900;28;20034;-79
2022/05/17 12:20:30;;;;;;;2.75;1.50;;;24.70;75.50;;;;;;4953219;28;20070;-79
2022/05/17 12:23:06;;;;;;;1.80;1.48;;;24.50;74.50;;;;;;4938422;29;20057;-78
2022/05/17 12:26:09;;;;;;;3.55;1.45;;;24.40;74.30;;;;;;4972288;28;20034;-78
2022/05/17 12:28:40;;;;;;;3.15;1.30;;;24.40;74.20;;;;;;4952268;28;20050;-79
2022/05/17 12:31:12;;;;;;;2.55;1.30;;;24.60;77.60;;;;;;4970064;28;20026;-79
2022/05/17 12:33:43;;;;;;;2.35;1.05;;;24.70;72.60;;;;;;4971963;28;20027;-78
2022/05/17 12:36:16;;;;;;;2.78;1.27;;;24.80;72.90;;;;;;4969847;28;20053;-78
2022/05/17 12:44:22;;;;;;;2.80;1.20;;;25.00;72.00;;;;;;4970405;28;20041;-77
2022/05/17 12:46:51;;;;;;;3.00;1.20;;;25.20;70.60;;;;;;4969198;28;20704;-78
2022/05/17 12:49:22;;;;;;;4.65;1.40;;;25.40;73.40;;;;;;4969022;28;20523;-77
2022/05/17 12:51:52;;;;;;;2.95;1.08;;;25.70;73.00;;;;;;4970196;28;20027;-85
2022/05/17 12:54:25;;;;;;;2.63;1.10;;;25.90;73.60;;;;;;4970145;28;20062;-84
2022/05/17 12:56:51;;;;;;;3.42;1.10;;;26.20;70.30;;;;;;4966600;28;20109;-77
2022/05/17 12:59:30;;;;;;;2.35;1.20;;;26.40;70.50;;;;;;4968760;28;20062;-79
2022/05/17 13:01:58;;;;;;;4.30;1.25;;;26.60;70.50;;;;;;4969048;28;20109;-78
2022/05/17 13:04:33;;;;;;;5.38;1.20;;;26.90;66.70;;;;;;4971725;28;20089;-79
2022/05/17 13:07:13;;;;;;;2.78;1.13;;;27.00;64.90;;;;;;4968735;28;20475;-78
2022/05/17 13:10:04;;;;;;;1.02;0.90;;;27.20;63.40;;;;;;4968656;28;20147;-80
2022/05/17 13:12:40;;;;;;;1.08;0.73;;;27.40;64.20;;;;;;4950470;28;20022;-79
2022/05/17 13:15:07;;;;;;;1.95;1.00;;;27.50;63.60;;;;;;4964266;28;20039;-79
2022/05/17 13:17:38;;;;;;;2.63;1.00;;;27.70;62.50;;;;;;4969225;28;20511;-79
2022/05/17 13:20:24;;;;;;;;;;;28.00;62.60;;;;;;4969541;28;20047;-80